createdAt,value
2023-05-06T03:02:37.352Z,1.80
2023-05-06T03:05:06.001Z,1.60
2023-05-06T03:07:33.928Z,1.70
2023-05-06T03:10:02.118Z,1.80
2023-05-06T03:12:33.710Z,1.88
2023-05-06T03:15:01.589Z,1.65
2023-05-06T03:17:30.233Z,1.65
2023-05-06T03:19:59.898Z,1.60
2023-05-06T03:22:28.273Z,1.77
2023-05-06T03:24:57.384Z,1.60
2023-05-06T03:27:26.451Z,1.63
2023-05-06T03:29:59.019Z,1.80
2023-05-06T03:32:27.085Z,1.60
2023-05-06T03:34:55.813Z,1.77
2023-05-06T03:37:25.227Z,1.60
2023-05-06T03:39:56.507Z,1.80
2023-05-06T03:42:27.402Z,1.77
2023-05-06T03:44:55.391Z,1.85
2023-05-06T03:47:24.541Z,1.60
2023-05-06T03:49:52.492Z,1.70
2023-05-06T03:52:21.039Z,1.70
2023-05-06T03:54:50.729Z,1.95
2023-05-06T03:57:19.064Z,2.00
2023-05-06T03:59:47.030Z,1.90
2023-05-06T04:02:15.767Z,1.90
2023-05-06T04:04:44.375Z,2.10
2023-05-06T04:07:13.095Z,1.65
2023-05-06T04:09:41.027Z,1.98
2023-05-06T04:12:11.122Z,2.08
2023-05-06T04:14:40.279Z,1.83
2023-05-06T04:17:09.112Z,1.90
2023-05-06T04:19:38.881Z,1.83
2023-05-06T04:22:06.775Z,1.70
2023-05-06T04:24:34.631Z,1.80
2023-05-06T04:27:04.373Z,1.90
2023-05-06T04:29:33.751Z,1.98
2023-05-06T04:32:04.867Z,2.10
2023-05-06T04:34:36.135Z,2.10
2023-05-06T04:37:05.594Z,2.28
2023-05-06T04:39:42.517Z,2.00
2023-05-06T04:42:10.443Z,2.05
2023-05-06T04:44:46.878Z,1.80
2023-05-06T04:47:14.748Z,2.20
2023-05-06T04:49:46.316Z,1.80
2023-05-06T04:52:14.517Z,1.98
2023-05-06T04:54:43.555Z,1.85
2023-05-06T04:57:13.269Z,1.90
2023-05-06T04:59:43.940Z,1.77
2023-05-06T05:02:14.259Z,2.08
2023-05-06T05:04:43.882Z,2.13
2023-05-06T05:07:11.786Z,2.00
2023-05-06T05:09:39.749Z,1.95
2023-05-06T05:12:08.824Z,2.08
2023-05-06T05:14:42.532Z,2.17
2023-05-06T05:17:12.207Z,2.25
2023-05-06T05:19:42.101Z,2.13
2023-05-06T05:22:10.467Z,2.20
2023-05-06T05:24:38.573Z,2.13
2023-05-06T05:27:06.408Z,2.10
2023-05-06T05:29:35.156Z,2.17
2023-05-06T05:32:06.653Z,2.33
2023-05-06T05:34:35.297Z,2.35
2023-05-06T05:37:04.839Z,2.20
2023-05-06T05:39:33.838Z,2.33
2023-05-06T05:42:02.244Z,2.28
2023-05-06T05:44:30.431Z,2.05
2023-05-06T05:46:58.806Z,2.08
2023-05-06T05:49:26.746Z,2.28
2023-05-06T05:51:55.024Z,2.00
2023-05-06T05:54:24.930Z,2.00
2023-05-06T05:56:52.806Z,2.03
2023-05-06T05:59:20.745Z,1.90
2023-05-06T06:01:51.164Z,2.28
2023-05-06T06:04:19.844Z,1.90
2023-05-06T06:06:47.912Z,1.90
2023-05-06T06:09:16.688Z,1.60
2023-05-06T06:11:46.482Z,1.70
2023-05-06T06:14:14.481Z,1.90
2023-05-06T06:16:43.338Z,1.80
2023-05-06T06:19:11.388Z,1.85
2023-05-06T06:21:39.238Z,2.00
2023-05-06T06:24:07.519Z,1.60
2023-05-06T06:26:35.379Z,1.70
2023-05-06T06:29:04.611Z,1.73
2023-05-06T06:31:33.923Z,1.75
2023-05-06T06:34:05.210Z,1.80
2023-05-06T06:36:33.319Z,1.60
2023-05-06T06:39:01.154Z,1.55
2023-05-06T06:41:29.087Z,1.85
2023-05-06T06:43:56.922Z,1.55
2023-05-06T06:46:28.253Z,1.70
2023-05-06T06:48:56.184Z,1.60
2023-05-06T06:51:24.038Z,1.63
2023-05-06T06:53:52.706Z,1.40
2023-05-06T06:56:21.300Z,1.90
2023-05-06T06:58:50.306Z,1.65
2023-05-06T07:01:20.243Z,1.60
2023-05-06T07:03:49.447Z,1.60
2023-05-06T07:06:17.350Z,1.80
2023-05-06T07:08:45.200Z,1.67
2023-05-06T07:11:14.292Z,1.50
2023-05-06T07:13:42.144Z,1.40
2023-05-06T07:16:10.007Z,1.83
2023-05-06T07:18:37.900Z,1.40
2023-05-06T07:21:07.293Z,1.50
2023-05-06T07:23:35.159Z,1.50
2023-05-06T07:26:03.035Z,1.60
2023-05-06T07:28:30.871Z,1.42
2023-05-06T07:30:58.754Z,1.33
2023-05-06T07:33:26.729Z,1.60
2023-05-06T07:35:54.846Z,1.60
2023-05-06T07:38:24.217Z,1.60
2023-05-06T07:40:52.924Z,1.50
2023-05-06T07:43:21.055Z,1.45
2023-05-06T07:45:48.904Z,1.23
2023-05-06T07:48:18.603Z,1.60
2023-05-06T07:50:47.633Z,1.10
2023-05-06T07:53:15.578Z,1.42
2023-05-06T07:55:44.761Z,2.03
2023-05-06T07:58:12.589Z,1.92
2023-05-06T08:00:40.621Z,1.63
2023-05-06T08:03:09.056Z,1.60
2023-05-06T08:05:37.077Z,1.40
2023-05-06T08:08:05.516Z,1.50
2023-05-06T08:10:33.521Z,1.38
2023-05-06T08:13:03.181Z,1.70
2023-05-06T08:15:31.157Z,1.40
2023-05-06T08:18:04.418Z,1.38
2023-05-06T08:20:42.196Z,1.50
2023-05-06T08:23:10.093Z,1.40
2023-05-06T08:25:37.970Z,1.50
2023-05-06T08:28:07.196Z,1.38
2023-05-06T08:30:35.157Z,1.83
2023-05-06T08:33:03.601Z,1.90
2023-05-06T08:35:31.507Z,1.70
2023-05-06T08:37:59.383Z,1.60
2023-05-06T08:40:29.308Z,1.60
2023-05-06T08:42:58.334Z,2.25
2023-05-06T08:45:29.559Z,1.50
2023-05-06T08:47:57.678Z,1.60
2023-05-06T08:50:26.783Z,1.38
2023-05-06T08:52:55.133Z,1.20
2023-05-06T08:55:23.341Z,1.30
2023-05-06T08:57:53.542Z,1.60
2023-05-06T09:00:21.625Z,1.40
2023-05-06T09:02:51.060Z,1.20
2023-05-06T09:05:19.046Z,1.30
2023-05-06T09:07:46.882Z,1.50
2023-05-06T09:10:17.743Z,1.60
2023-05-06T09:12:45.686Z,1.20
2023-05-06T09:15:13.794Z,1.30
2023-05-06T09:17:41.967Z,1.10
2023-05-06T09:20:13.480Z,1.20
2023-05-06T09:22:42.216Z,1.05
2023-05-06T09:25:11.791Z,1.27
2023-05-06T09:27:40.529Z,1.00
2023-05-06T09:30:11.575Z,0.90
2023-05-06T09:32:40.382Z,1.10
2023-05-06T09:35:11.688Z,0.93
2023-05-06T09:37:40.219Z,0.70
2023-05-06T09:40:10.118Z,0.90
2023-05-06T09:42:39.235Z,1.02
2023-05-06T09:45:10.210Z,0.95
2023-05-06T09:47:38.767Z,0.85
2023-05-06T09:50:09.847Z,0.98
2023-05-06T09:52:39.037Z,0.98
2023-05-06T09:55:08.391Z,0.90
2023-05-06T09:57:37.692Z,0.80
2023-05-06T10:00:11.953Z,0.85
2023-05-06T10:02:43.679Z,0.70
2023-05-06T10:05:13.646Z,0.80
2023-05-06T10:07:43.316Z,1.00
2023-05-06T10:10:13.389Z,1.00
2023-05-06T10:12:41.408Z,0.90
2023-05-06T10:15:10.801Z,1.10
2023-05-06T10:17:41.291Z,0.82
2023-05-06T10:20:11.471Z,0.77
2023-05-06T10:22:49.154Z,0.80
2023-05-06T10:25:27.749Z,0.90
2023-05-06T10:27:55.596Z,0.80
2023-05-06T10:30:24.696Z,0.82
2023-05-06T10:32:56.369Z,0.90
2023-05-06T10:35:33.529Z,0.90
2023-05-06T10:38:04.686Z,1.00
2023-05-06T10:40:33.276Z,0.90
2023-05-06T10:43:27.004Z,1.02
2023-05-06T10:46:03.187Z,0.70
2023-05-06T10:48:32.476Z,0.93
2023-05-06T10:51:25.928Z,0.77
2023-05-06T10:54:06.610Z,1.00
2023-05-06T10:56:36.375Z,1.00
2023-05-06T10:59:08.015Z,0.93
2023-05-06T11:01:36.628Z,0.80
2023-05-06T11:04:09.974Z,1.10
2023-05-06T11:06:41.072Z,1.00
2023-05-06T11:09:17.848Z,1.00
2023-05-06T11:12:01.679Z,0.80
2023-05-06T11:14:30.791Z,0.90
2023-05-06T11:16:59.999Z,1.10
2023-05-06T11:19:29.978Z,0.82
2023-05-06T11:21:59.038Z,0.90
2023-05-06T11:24:29.278Z,0.88
2023-05-06T11:26:59.684Z,0.88
2023-05-06T11:29:27.975Z,1.05
2023-05-06T11:31:55.867Z,0.80
2023-05-06T11:34:25.994Z,0.95
2023-05-06T11:37:05.226Z,0.98
2023-05-06T11:39:40.553Z,0.80
2023-05-06T11:42:09.395Z,0.90
2023-05-06T11:44:38.670Z,0.80
2023-05-06T11:47:08.004Z,1.00
2023-05-06T11:49:41.391Z,1.00
2023-05-06T11:52:09.881Z,1.35
2023-05-06T11:54:40.888Z,0.85
2023-05-06T11:57:09.129Z,0.98
2023-05-06T11:59:38.371Z,0.90
2023-05-06T12:02:08.436Z,0.77
2023-05-06T12:04:41.292Z,0.88
2023-05-06T12:07:11.687Z,0.90
2023-05-06T12:09:44.436Z,1.17
2023-05-06T12:12:16.152Z,2.15
2023-05-06T12:14:46.135Z,1.52
2023-05-06T12:17:14.733Z,1.15
2023-05-06T12:19:42.651Z,0.80
2023-05-06T12:22:18.663Z,1.05
2023-05-06T12:24:48.216Z,1.20
2023-05-06T12:27:16.138Z,1.30
2023-05-06T12:29:53.303Z,1.33
2023-05-06T12:32:21.154Z,1.10
2023-05-06T12:34:49.002Z,0.80
2023-05-06T12:37:26.350Z,1.00
2023-05-06T12:39:58.436Z,1.02
2023-05-06T12:42:27.318Z,0.90
2023-05-06T12:44:55.752Z,1.00
2023-05-06T12:47:25.434Z,1.02
2023-05-06T12:49:54.833Z,0.85
2023-05-06T12:52:24.133Z,0.93
2023-05-06T12:54:53.067Z,0.80
2023-05-06T12:57:22.702Z,0.95
2023-05-06T12:59:51.222Z,1.20
2023-05-06T13:02:19.612Z,0.88
2023-05-06T13:04:47.589Z,1.00
2023-05-06T13:07:15.504Z,1.00
2023-05-06T13:09:44.435Z,1.25
2023-05-06T13:12:12.418Z,1.10
2023-05-06T13:14:41.627Z,1.20
2023-05-06T13:17:09.918Z,0.95
2023-05-06T13:19:38.059Z,1.25
2023-05-06T13:22:05.956Z,1.10
2023-05-06T13:24:33.817Z,0.95
2023-05-06T13:27:02.070Z,0.98
2023-05-06T13:29:30.463Z,1.20
2023-05-06T13:32:00.613Z,1.10
2023-05-06T13:34:28.580Z,1.00
2023-05-06T13:36:57.152Z,1.10
2023-05-06T13:39:25.206Z,1.10
2023-05-06T13:41:54.135Z,1.25
2023-05-06T13:44:22.691Z,1.13
2023-05-06T13:46:50.790Z,1.15
2023-05-06T13:49:20.591Z,1.10
2023-05-06T13:51:48.735Z,1.30
2023-05-06T13:54:16.658Z,1.40
2023-05-06T13:56:44.717Z,1.50
2023-05-06T13:59:13.913Z,1.45
2023-05-06T14:01:42.585Z,1.35
2023-05-06T14:04:10.698Z,1.20
2023-05-06T14:06:40.543Z,1.40
2023-05-06T14:09:08.589Z,1.20
2023-05-06T14:11:36.689Z,1.48
2023-05-06T14:14:04.718Z,1.58
2023-05-06T14:16:32.667Z,1.60
2023-05-06T14:19:01.055Z,1.65
2023-05-06T14:21:28.912Z,1.42
2023-05-06T14:23:58.295Z,1.35
2023-05-06T14:26:26.817Z,1.40
2023-05-06T14:28:54.679Z,1.40
2023-05-06T14:31:23.285Z,1.50
2023-05-06T14:33:51.223Z,1.60
2023-05-06T14:36:19.841Z,1.50
2023-05-06T14:38:47.650Z,1.20
2023-05-06T14:41:16.834Z,1.55
2023-05-06T14:43:44.652Z,1.42
2023-05-06T14:46:14.556Z,1.50
2023-05-06T14:48:43.300Z,1.52
2023-05-06T14:51:11.291Z,1.55
2023-05-06T14:53:39.131Z,1.45
2023-05-06T14:56:09.373Z,1.35
2023-05-06T14:58:39.145Z,1.30
2023-05-06T15:01:07.093Z,1.30
2023-05-06T15:03:36.174Z,1.50
2023-05-06T15:06:04.478Z,1.35
2023-05-06T15:08:32.532Z,1.30
2023-05-06T15:11:03.066Z,1.40
2023-05-06T15:13:31.829Z,1.20
2023-05-06T15:16:01.032Z,1.85
2023-05-06T15:18:28.918Z,1.20
2023-05-06T15:20:58.615Z,1.30
2023-05-06T15:23:26.632Z,1.50
2023-05-06T15:25:54.522Z,1.40
2023-05-06T15:28:24.574Z,1.42
2023-05-06T15:30:52.728Z,1.60
2023-05-06T15:33:22.253Z,1.30
2023-05-06T15:35:50.308Z,1.50
2023-05-06T15:38:18.222Z,1.00
2023-05-06T15:40:51.886Z,1.20
2023-05-06T15:43:23.743Z,1.20
2023-05-06T15:45:52.387Z,1.27
2023-05-06T15:48:21.885Z,1.75
2023-05-06T15:50:49.760Z,1.20
2023-05-06T15:53:17.978Z,1.27
2023-05-06T15:55:52.871Z,1.20
2023-05-06T15:58:25.356Z,1.48
2023-05-06T16:00:53.290Z,1.35
2023-05-06T16:03:22.876Z,1.08
2023-05-06T16:05:54.368Z,1.80
2023-05-06T16:08:22.226Z,1.30
2023-05-06T16:10:50.186Z,1.83
2023-05-06T16:13:18.121Z,1.40
2023-05-06T16:15:46.153Z,1.60
2023-05-06T16:18:14.037Z,1.20
2023-05-06T16:20:43.347Z,1.48
2023-05-06T16:23:11.427Z,1.70
2023-05-06T16:25:39.540Z,1.60
2023-05-06T16:28:08.787Z,1.70
2023-05-06T16:30:37.486Z,2.22
2023-05-06T16:33:06.015Z,3.65
2023-05-06T16:35:34.000Z,3.08
2023-05-06T16:38:03.179Z,2.78
2023-05-06T16:40:31.196Z,1.70
2023-05-06T16:42:59.098Z,1.42
2023-05-06T16:45:26.914Z,1.30
2023-05-06T16:47:54.870Z,1.60
2023-05-06T16:50:22.782Z,1.50
2023-05-06T16:52:50.627Z,1.55
2023-05-06T16:55:21.795Z,1.50
2023-05-06T16:57:49.739Z,1.33
2023-05-06T17:00:18.402Z,1.63
2023-05-06T17:02:46.329Z,1.58
2023-05-06T17:05:14.255Z,1.48
2023-05-06T17:07:42.074Z,1.23
2023-05-06T17:10:10.894Z,1.85
2023-05-06T17:12:41.572Z,1.60
2023-05-06T17:15:10.270Z,1.40
2023-05-06T17:17:38.146Z,1.30
2023-05-06T17:20:07.076Z,1.40
2023-05-06T17:22:35.114Z,1.50
2023-05-06T17:25:04.187Z,1.60
2023-05-06T17:27:32.062Z,1.50
2023-05-06T17:30:01.959Z,1.58
2023-05-06T17:32:29.941Z,1.70
2023-05-06T17:34:58.084Z,1.60
2023-05-06T17:37:25.928Z,1.67
2023-05-06T17:39:54.567Z,2.03
2023-05-06T17:42:22.558Z,1.60
2023-05-06T17:44:50.416Z,1.45
2023-05-06T17:47:22.634Z,1.48
2023-05-06T17:49:51.760Z,1.80
2023-05-06T17:52:19.707Z,1.90
2023-05-06T17:54:56.948Z,2.17
2023-05-06T17:57:30.305Z,5.13
2023-05-06T17:59:58.167Z,2.10
2023-05-06T18:02:27.429Z,5.50
2023-05-06T18:04:55.337Z,3.72
2023-05-06T18:07:23.161Z,3.40
2023-05-06T18:09:52.043Z,2.50
2023-05-06T18:12:20.038Z,2.80
2023-05-06T18:14:48.741Z,2.22
2023-05-06T18:17:16.588Z,2.60
2023-05-06T18:19:45.765Z,2.53
2023-05-06T18:22:13.623Z,4.22
2023-05-06T18:24:42.536Z,3.03
2023-05-06T18:27:10.479Z,2.20
2023-05-06T18:29:38.393Z,1.98
2023-05-06T18:32:07.079Z,2.50
2023-05-06T18:34:35.133Z,2.40
2023-05-06T18:37:04.595Z,1.58
2023-05-06T18:39:32.780Z,2.33
2023-05-06T18:42:00.697Z,4.03
2023-05-06T18:44:28.545Z,2.55
2023-05-06T18:46:56.389Z,1.83
2023-05-06T18:49:25.186Z,2.22
2023-05-06T18:51:54.083Z,2.05
2023-05-06T18:54:23.328Z,2.40
2023-05-06T18:56:51.617Z,4.15
2023-05-06T18:59:19.605Z,2.47
2023-05-06T19:01:47.461Z,1.65
2023-05-06T19:04:16.216Z,2.53
2023-05-06T19:06:44.200Z,1.90
2023-05-06T19:09:12.158Z,1.50
2023-05-06T19:11:41.330Z,1.60
2023-05-06T19:14:09.161Z,1.60
2023-05-06T19:16:37.085Z,1.52
2023-05-06T19:19:07.066Z,1.50
2023-05-06T19:21:35.509Z,2.33
2023-05-06T19:24:03.375Z,1.88
2023-05-06T19:26:31.293Z,1.55
2023-05-06T19:29:00.471Z,1.50
2023-05-06T19:31:28.350Z,1.35
2023-05-06T19:33:56.215Z,1.60
2023-05-06T19:36:24.105Z,1.50
2023-05-06T19:38:52.075Z,1.58
2023-05-06T19:41:19.989Z,1.40
2023-05-06T19:43:48.028Z,1.50
2023-05-06T19:46:17.664Z,1.30
2023-05-06T19:48:46.740Z,1.38
2023-05-06T19:51:14.600Z,1.20
2023-05-06T19:53:42.497Z,1.17
2023-05-06T19:56:11.330Z,1.20
2023-05-06T19:58:39.600Z,1.10
2023-05-06T20:01:07.584Z,1.00
2023-05-06T20:03:37.057Z,1.27
2023-05-06T20:06:05.300Z,1.20
2023-05-06T20:08:33.160Z,1.30
2023-05-06T20:11:01.017Z,1.10
2023-05-06T20:13:28.984Z,1.10
2023-05-06T20:15:57.305Z,1.10
2023-05-06T20:18:25.465Z,1.40
2023-05-06T20:20:54.644Z,1.20
2023-05-06T20:23:22.491Z,1.10
2023-05-06T20:25:50.390Z,1.00
2023-05-06T20:28:18.448Z,1.00
2023-05-06T20:30:46.558Z,1.20
2023-05-06T20:33:14.463Z,1.42
2023-05-06T20:35:42.534Z,1.10
2023-05-06T20:38:12.045Z,1.20
2023-05-06T20:40:39.888Z,1.30
2023-05-06T20:43:07.756Z,1.58
2023-05-06T20:45:35.664Z,1.40
2023-05-06T20:48:03.677Z,1.50
2023-05-06T20:50:31.597Z,1.67
2023-05-06T20:52:59.486Z,1.60
2023-05-06T20:55:28.747Z,1.75
2023-05-06T20:57:56.602Z,2.13
2023-05-06T21:00:24.537Z,2.13
2023-05-06T21:02:52.442Z,2.08
2023-05-06T21:05:20.393Z,1.73
2023-05-06T21:07:48.261Z,1.63
2023-05-06T21:10:16.108Z,1.60
2023-05-06T21:12:49.405Z,1.50
2023-05-06T21:15:17.660Z,1.70
2023-05-06T21:17:45.746Z,1.70
2023-05-06T21:20:14.264Z,1.80
2023-05-06T21:22:42.207Z,1.77
2023-05-06T21:25:13.112Z,1.80
2023-05-06T21:27:41.166Z,2.10
2023-05-06T21:30:11.428Z,1.90
2023-05-06T21:32:39.280Z,2.00
2023-05-06T21:35:08.245Z,1.70
2023-05-06T21:37:36.558Z,1.73
2023-05-06T21:40:05.022Z,1.65
2023-05-06T21:42:32.886Z,1.50
2023-05-06T21:45:00.802Z,1.52
2023-05-06T21:47:30.050Z,1.70
2023-05-06T21:49:57.908Z,1.80
2023-05-06T21:52:25.804Z,1.80
2023-05-06T21:54:54.668Z,1.90
2023-05-06T21:57:22.526Z,2.00
2023-05-06T21:59:50.374Z,2.28
